sensor_id;sensor_type;location;lat;lon;timestamp;P1;durP1;ratioP1;P2;durP2;ratioP2
56599;SDS011;51832;48.152;11.530;2023-03-17T00:02:49;6.95;;;4.03;;
56599;SDS011;51832;48.152;11.530;2023-03-17T00:07:51;7.13;;;4.47;;
56599;SDS011;51832;48.152;11.530;2023-03-17T00:12:53;5.80;;;4.23;;
56599;SDS011;51832;48.152;11.530;2023-03-17T00:17:54;6.10;;;4.57;;
56599;SDS011;51832;48.152;11.530;2023-03-17T00:22:58;6.40;;;4.30;;
56599;SDS011;51832;48.152;11.530;2023-03-17T00:28:05;4.72;;;3.80;;
56599;SDS011;51832;48.152;11.530;2023-03-17T00:33:08;7.32;;;4.00;;
56599;SDS011;51832;48.152;11.530;2023-03-17T00:38:10;5.05;;;4.30;;
56599;SDS011;51832;48.152;11.530;2023-03-17T00:43:15;7.25;;;4.07;;
56599;SDS011;51832;48.152;11.530;2023-03-17T00:48:17;5.07;;;3.65;;
56599;SDS011;51832;48.152;11.530;2023-03-17T00:58:24;5.18;;;3.80;;
56599;SDS011;51832;48.152;11.530;2023-03-17T01:03:27;5.70;;;3.72;;
56599;SDS011;51832;48.152;11.530;2023-03-17T01:08:28;6.88;;;4.22;;
56599;SDS011;51832;48.152;11.530;2023-03-17T01:13:29;4.75;;;4.10;;
56599;SDS011;51832;48.152;11.530;2023-03-17T01:18:29;6.32;;;4.70;;
56599;SDS011;51832;48.152;11.530;2023-03-17T01:23:30;4.90;;;3.70;;
56599;SDS011;51832;48.152;11.530;2023-03-17T01:28:31;6.28;;;4.03;;
56599;SDS011;51832;48.152;11.530;2023-03-17T01:33:32;7.43;;;4.30;;
56599;SDS011;51832;48.152;11.530;2023-03-17T01:38:32;6.03;;;4.43;;
56599;SDS011;51832;48.152;11.530;2023-03-17T01:43:33;7.28;;;4.45;;
56599;SDS011;51832;48.152;11.530;2023-03-17T01:48:35;5.95;;;3.72;;
56599;SDS011;51832;48.152;11.530;2023-03-17T01:53:39;6.72;;;4.38;;
56599;SDS011;51832;48.152;11.530;2023-03-17T01:58:41;8.50;;;3.97;;
56599;SDS011;51832;48.152;11.530;2023-03-17T02:03:44;5.60;;;3.50;;
56599;SDS011;51832;48.152;11.530;2023-03-17T02:08:44;7.65;;;4.70;;
56599;SDS011;51832;48.152;11.530;2023-03-17T02:13:45;5.53;;;4.32;;
56599;SDS011;51832;48.152;11.530;2023-03-17T02:18:45;6.10;;;4.25;;
56599;SDS011;51832;48.152;11.530;2023-03-17T02:23:46;6.05;;;4.20;;
56599;SDS011;51832;48.152;11.530;2023-03-17T02:28:47;7.75;;;5.05;;
56599;SDS011;51832;48.152;11.530;2023-03-17T02:33:47;7.00;;;4.35;;
56599;SDS011;51832;48.152;11.530;2023-03-17T02:38:48;5.85;;;4.43;;
56599;SDS011;51832;48.152;11.530;2023-03-17T02:43:48;7.15;;;4.20;;
56599;SDS011;51832;48.152;11.530;2023-03-17T02:48:49;6.85;;;4.30;;
56599;SDS011;51832;48.152;11.530;2023-03-17T02:53:50;5.93;;;4.22;;
56599;SDS011;51832;48.152;11.530;2023-03-17T02:58:50;5.55;;;4.10;;
56599;SDS011;51832;48.152;11.530;2023-03-17T03:03:51;6.85;;;4.20;;
56599;SDS011;51832;48.152;11.530;2023-03-17T03:08:52;6.60;;;4.40;;
56599;SDS011;51832;48.152;11.530;2023-03-17T03:13:52;6.88;;;4.32;;
56599;SDS011;51832;48.152;11.530;2023-03-17T03:18:53;4.97;;;3.88;;
56599;SDS011;51832;48.152;11.530;2023-03-17T03:23:54;5.53;;;4.40;;
56599;SDS011;51832;48.152;11.530;2023-03-17T03:28:54;8.35;;;4.50;;
56599;SDS011;51832;48.152;11.530;2023-03-17T03:33:56;5.47;;;4.05;;
56599;SDS011;51832;48.152;11.530;2023-03-17T03:38:56;5.97;;;4.40;;
56599;SDS011;51832;48.152;11.530;2023-03-17T03:43:57;6.88;;;4.65;;
56599;SDS011;51832;48.152;11.530;2023-03-17T03:48:58;5.38;;;3.88;;
56599;SDS011;51832;48.152;11.530;2023-03-17T03:53:58;6.85;;;4.68;;
56599;SDS011;51832;48.152;11.530;2023-03-17T03:59:00;6.50;;;4.38;;
56599;SDS011;51832;48.152;11.530;2023-03-17T04:04:00;5.25;;;4.35;;
56599;SDS011;51832;48.152;11.530;2023-03-17T04:09:01;6.65;;;4.15;;
56599;SDS011;51832;48.152;11.530;2023-03-17T04:14:01;7.25;;;4.38;;
56599;SDS011;51832;48.152;11.530;2023-03-17T04:19:03;5.63;;;4.05;;
56599;SDS011;51832;48.152;11.530;2023-03-17T04:24:03;6.07;;;4.07;;
56599;SDS011;51832;48.152;11.530;2023-03-17T04:29:07;7.60;;;4.35;;
56599;SDS011;51832;48.152;11.530;2023-03-17T04:34:13;5.93;;;4.10;;
56599;SDS011;51832;48.152;11.530;2023-03-17T04:39:15;5.30;;;3.85;;
56599;SDS011;51832;48.152;11.530;2023-03-17T04:44:16;5.50;;;4.05;;
56599;SDS011;51832;48.152;11.530;2023-03-17T04:49:16;5.43;;;3.78;;
56599;SDS011;51832;48.152;11.530;2023-03-17T04:54:17;6.85;;;3.72;;
56599;SDS011;51832;48.152;11.530;2023-03-17T04:59:17;4.88;;;3.20;;
56599;SDS011;51832;48.152;11.530;2023-03-17T05:04:18;5.07;;;3.92;;
56599;SDS011;51832;48.152;11.530;2023-03-17T05:09:19;4.30;;;3.40;;
56599;SDS011;51832;48.152;11.530;2023-03-17T05:14:19;7.45;;;3.67;;
56599;SDS011;51832;48.152;11.530;2023-03-17T05:19:20;4.43;;;3.60;;
56599;SDS011;51832;48.152;11.530;2023-03-17T05:24:21;6.88;;;4.57;;
56599;SDS011;51832;48.152;11.530;2023-03-17T05:29:21;6.15;;;4.07;;
56599;SDS011;51832;48.152;11.530;2023-03-17T05:34:22;6.00;;;4.03;;
56599;SDS011;51832;48.152;11.530;2023-03-17T05:39:22;5.38;;;4.00;;
56599;SDS011;51832;48.152;11.530;2023-03-17T05:44:23;6.57;;;3.90;;
56599;SDS011;51832;48.152;11.530;2023-03-17T05:49:24;6.80;;;4.30;;
56599;SDS011;51832;48.152;11.530;2023-03-17T05:54:25;4.43;;;3.78;;
56599;SDS011;51832;48.152;11.530;2023-03-17T05:59:26;6.50;;;5.10;;
56599;SDS011;51832;48.152;11.530;2023-03-17T06:04:26;5.50;;;4.00;;
56599;SDS011;51832;48.152;11.530;2023-03-17T06:09:27;5.07;;;4.00;;
56599;SDS011;51832;48.152;11.530;2023-03-17T06:14:27;7.30;;;4.20;;
56599;SDS011;51832;48.152;11.530;2023-03-17T06:19:27;7.13;;;3.97;;
56599;SDS011;51832;48.152;11.530;2023-03-17T06:24:28;7.53;;;4.18;;
56599;SDS011;51832;48.152;11.530;2023-03-17T06:29:28;5.50;;;3.85;;
56599;SDS011;51832;48.152;11.530;2023-03-17T06:34:29;7.20;;;3.65;;
56599;SDS011;51832;48.152;11.530;2023-03-17T06:39:30;6.07;;;4.13;;
56599;SDS011;51832;48.152;11.530;2023-03-17T06:44:30;6.50;;;4.03;;
56599;SDS011;51832;48.152;11.530;2023-03-17T06:49:31;6.72;;;3.90;;
56599;SDS011;51832;48.152;11.530;2023-03-17T06:54:31;6.85;;;3.63;;
56599;SDS011;51832;48.152;11.530;2023-03-17T06:59:32;5.82;;;3.60;;
56599;SDS011;51832;48.152;11.530;2023-03-17T07:04:32;5.75;;;3.90;;
56599;SDS011;51832;48.152;11.530;2023-03-17T07:09:36;5.53;;;3.58;;
56599;SDS011;51832;48.152;11.530;2023-03-17T07:14:37;6.05;;;3.72;;
56599;SDS011;51832;48.152;11.530;2023-03-17T07:19:37;7.60;;;4.20;;
56599;SDS011;51832;48.152;11.530;2023-03-17T07:24:38;7.60;;;3.83;;
56599;SDS011;51832;48.152;11.530;2023-03-17T07:29:40;6.22;;;3.88;;
56599;SDS011;51832;48.152;11.530;2023-03-17T07:34:41;4.47;;;3.53;;
56599;SDS011;51832;48.152;11.530;2023-03-17T07:39:42;7.32;;;3.97;;
56599;SDS011;51832;48.152;11.530;2023-03-17T07:44:43;5.75;;;3.55;;
56599;SDS011;51832;48.152;11.530;2023-03-17T07:49:43;9.85;;;4.25;;
56599;SDS011;51832;48.152;11.530;2023-03-17T07:54:44;6.87;;;4.10;;
56599;SDS011;51832;48.152;11.530;2023-03-17T07:59:44;5.20;;;3.70;;
56599;SDS011;51832;48.152;11.530;2023-03-17T08:04:44;5.13;;;3.60;;
56599;SDS011;51832;48.152;11.530;2023-03-17T08:09:45;5.97;;;3.87;;
56599;SDS011;51832;48.152;11.530;2023-03-17T08:14:45;6.78;;;4.10;;
56599;SDS011;51832;48.152;11.530;2023-03-17T08:19:46;7.25;;;3.95;;
56599;SDS011;51832;48.152;11.530;2023-03-17T08:24:46;7.33;;;4.50;;
56599;SDS011;51832;48.152;11.530;2023-03-17T08:29:47;5.65;;;4.20;;
56599;SDS011;51832;48.152;11.530;2023-03-17T08:34:52;5.10;;;4.00;;
56599;SDS011;51832;48.152;11.530;2023-03-17T08:39:53;5.85;;;3.92;;
56599;SDS011;51832;48.152;11.530;2023-03-17T08:44:54;8.80;;;4.18;;
56599;SDS011;51832;48.152;11.530;2023-03-17T08:49:54;4.72;;;3.60;;
56599;SDS011;51832;48.152;11.530;2023-03-17T08:54:55;4.05;;;3.40;;
56599;SDS011;51832;48.152;11.530;2023-03-17T08:59:55;4.20;;;3.10;;
56599;SDS011;51832;48.152;11.530;2023-03-17T09:04:56;6.90;;;3.27;;
56599;SDS011;51832;48.152;11.530;2023-03-17T09:09:56;6.95;;;3.28;;
56599;SDS011;51832;48.152;11.530;2023-03-17T09:14:57;5.60;;;3.80;;
56599;SDS011;51832;48.152;11.530;2023-03-17T09:19:58;4.15;;;3.65;;
56599;SDS011;51832;48.152;11.530;2023-03-17T09:24:58;5.50;;;3.57;;
56599;SDS011;51832;48.152;11.530;2023-03-17T09:29:59;4.43;;;3.55;;
56599;SDS011;51832;48.152;11.530;2023-03-17T09:34:59;4.87;;;3.27;;
56599;SDS011;51832;48.152;11.530;2023-03-17T09:40:00;6.68;;;3.10;;
56599;SDS011;51832;48.152;11.530;2023-03-17T09:45:25;6.18;;;4.00;;
56599;SDS011;51832;48.152;11.530;2023-03-17T09:50:31;5.47;;;3.78;;
56599;SDS011;51832;48.152;11.530;2023-03-17T09:55:38;6.32;;;4.05;;
56599;SDS011;51832;48.152;11.530;2023-03-17T10:00:38;7.57;;;3.38;;
56599;SDS011;51832;48.152;11.530;2023-03-17T10:05:39;4.30;;;2.80;;
56599;SDS011;51832;48.152;11.530;2023-03-17T10:16:00;3.60;;;2.70;;
56599;SDS011;51832;48.152;11.530;2023-03-17T10:21:06;3.75;;;2.67;;
56599;SDS011;51832;48.152;11.530;2023-03-17T10:26:23;3.70;;;2.80;;
56599;SDS011;51832;48.152;11.530;2023-03-17T10:31:32;2.97;;;2.65;;
56599;SDS011;51832;48.152;11.530;2023-03-17T10:36:35;3.07;;;2.50;;
56599;SDS011;51832;48.152;11.530;2023-03-17T10:41:40;2.42;;;2.20;;
56599;SDS011;51832;48.152;11.530;2023-03-17T10:46:51;3.15;;;2.38;;
56599;SDS011;51832;48.152;11.530;2023-03-17T10:51:54;27.95;;;18.98;;
56599;SDS011;51832;48.152;11.530;2023-03-17T10:56:58;3.60;;;2.65;;
56599;SDS011;51832;48.152;11.530;2023-03-17T11:02:05;4.75;;;2.95;;
56599;SDS011;51832;48.152;11.530;2023-03-17T11:07:16;5.22;;;2.85;;
56599;SDS011;51832;48.152;11.530;2023-03-17T11:33:31;6.18;;;2.28;;
56599;SDS011;51832;48.152;11.530;2023-03-17T11:44:17;2.83;;;1.92;;
56599;SDS011;51832;48.152;11.530;2023-03-17T11:49:40;2.10;;;1.85;;
56599;SDS011;51832;48.152;11.530;2023-03-17T12:15:26;4.30;;;2.70;;
56599;SDS011;51832;48.152;11.530;2023-03-17T12:25:50;5.32;;;2.95;;
56599;SDS011;51832;48.152;11.530;2023-03-17T12:31:04;4.57;;;2.80;;
56599;SDS011;51832;48.152;11.530;2023-03-17T12:36:15;5.32;;;2.80;;
56599;SDS011;51832;48.152;11.530;2023-03-17T12:41:37;3.67;;;2.90;;
56599;SDS011;51832;48.152;11.530;2023-03-17T12:56:49;4.50;;;2.88;;
56599;SDS011;51832;48.152;11.530;2023-03-17T13:01:54;2.92;;;2.53;;
56599;SDS011;51832;48.152;11.530;2023-03-17T13:07:15;4.50;;;2.70;;
56599;SDS011;51832;48.152;11.530;2023-03-17T13:17:39;5.00;;;2.55;;
56599;SDS011;51832;48.152;11.530;2023-03-17T13:22:41;4.35;;;2.65;;
56599;SDS011;51832;48.152;11.530;2023-03-17T13:49:24;4.28;;;2.60;;
56599;SDS011;51832;48.152;11.530;2023-03-17T13:54:39;5.40;;;3.35;;
56599;SDS011;51832;48.152;11.530;2023-03-17T13:59:52;4.57;;;2.90;;
56599;SDS011;51832;48.152;11.530;2023-03-17T14:04:57;6.03;;;3.08;;
56599;SDS011;51832;48.152;11.530;2023-03-17T14:10:01;6.00;;;3.83;;
56599;SDS011;51832;48.152;11.530;2023-03-17T14:15:19;5.57;;;3.60;;
56599;SDS011;51832;48.152;11.530;2023-03-17T14:20:26;7.70;;;3.80;;
56599;SDS011;51832;48.152;11.530;2023-03-17T14:25:36;5.43;;;3.50;;
56599;SDS011;51832;48.152;11.530;2023-03-17T14:30:38;4.57;;;3.03;;
56599;SDS011;51832;48.152;11.530;2023-03-17T14:35:40;4.20;;;3.45;;
56599;SDS011;51832;48.152;11.530;2023-03-17T14:40:42;4.10;;;3.03;;
56599;SDS011;51832;48.152;11.530;2023-03-17T14:45:46;5.07;;;4.10;;
56599;SDS011;51832;48.152;11.530;2023-03-17T14:50:55;3.97;;;3.60;;
56599;SDS011;51832;48.152;11.530;2023-03-17T14:56:04;4.90;;;3.67;;
56599;SDS011;51832;48.152;11.530;2023-03-17T15:06:27;3.97;;;3.50;;
56599;SDS011;51832;48.152;11.530;2023-03-17T15:11:40;5.80;;;3.65;;
56599;SDS011;51832;48.152;11.530;2023-03-17T15:16:44;6.40;;;3.17;;
56599;SDS011;51832;48.152;11.530;2023-03-17T15:21:51;4.80;;;3.63;;
56599;SDS011;51832;48.152;11.530;2023-03-17T15:27:02;13.88;;;6.20;;
56599;SDS011;51832;48.152;11.530;2023-03-17T15:32:16;6.00;;;3.90;;
56599;SDS011;51832;48.152;11.530;2023-03-17T15:37:30;4.00;;;3.40;;
56599;SDS011;51832;48.152;11.530;2023-03-17T15:42:32;4.88;;;3.63;;
56599;SDS011;51832;48.152;11.530;2023-03-17T15:47:35;5.30;;;3.75;;
56599;SDS011;51832;48.152;11.530;2023-03-17T15:52:38;6.75;;;4.10;;
56599;SDS011;51832;48.152;11.530;2023-03-17T15:57:39;4.93;;;3.73;;
56599;SDS011;51832;48.152;11.530;2023-03-17T16:02:39;4.10;;;3.70;;
56599;SDS011;51832;48.152;11.530;2023-03-17T16:07:40;4.22;;;3.72;;
56599;SDS011;51832;48.152;11.530;2023-03-17T16:12:41;4.75;;;3.53;;
56599;SDS011;51832;48.152;11.530;2023-03-17T16:17:42;3.97;;;3.40;;
56599;SDS011;51832;48.152;11.530;2023-03-17T16:22:43;4.00;;;3.50;;
56599;SDS011;51832;48.152;11.530;2023-03-17T16:27:44;3.95;;;3.13;;
56599;SDS011;51832;48.152;11.530;2023-03-17T16:32:45;5.97;;;3.57;;
56599;SDS011;51832;48.152;11.530;2023-03-17T16:37:46;5.65;;;3.63;;
56599;SDS011;51832;48.152;11.530;2023-03-17T16:42:47;4.68;;;3.38;;
56599;SDS011;51832;48.152;11.530;2023-03-17T16:47:49;4.85;;;3.45;;
56599;SDS011;51832;48.152;11.530;2023-03-17T16:52:49;5.00;;;3.00;;
56599;SDS011;51832;48.152;11.530;2023-03-17T16:57:51;3.88;;;2.83;;
56599;SDS011;51832;48.152;11.530;2023-03-17T17:02:54;3.88;;;2.83;;
56599;SDS011;51832;48.152;11.530;2023-03-17T17:07:55;4.18;;;3.28;;
56599;SDS011;51832;48.152;11.530;2023-03-17T17:12:56;4.97;;;3.20;;
56599;SDS011;51832;48.152;11.530;2023-03-17T17:17:58;7.05;;;3.40;;
56599;SDS011;51832;48.152;11.530;2023-03-17T17:23:05;6.72;;;3.45;;
56599;SDS011;51832;48.152;11.530;2023-03-17T17:28:10;6.20;;;3.85;;
56599;SDS011;51832;48.152;11.530;2023-03-17T17:33:12;4.97;;;3.95;;
56599;SDS011;51832;48.152;11.530;2023-03-17T17:38:16;9.57;;;4.43;;
56599;SDS011;51832;48.152;11.530;2023-03-17T17:43:21;7.80;;;4.63;;
56599;SDS011;51832;48.152;11.530;2023-03-17T17:48:24;7.30;;;3.95;;
56599;SDS011;51832;48.152;11.530;2023-03-17T17:53:25;5.43;;;3.90;;
56599;SDS011;51832;48.152;11.530;2023-03-17T17:58:25;7.00;;;4.30;;
56599;SDS011;51832;48.152;11.530;2023-03-17T18:03:27;9.27;;;4.70;;
56599;SDS011;51832;48.152;11.530;2023-03-17T18:08:27;7.20;;;4.40;;
56599;SDS011;51832;48.152;11.530;2023-03-17T18:13:28;8.95;;;4.15;;
56599;SDS011;51832;48.152;11.530;2023-03-17T18:18:28;8.95;;;4.20;;
56599;SDS011;51832;48.152;11.530;2023-03-17T18:23:29;10.03;;;5.10;;
56599;SDS011;51832;48.152;11.530;2023-03-17T18:28:29;9.60;;;5.05;;
56599;SDS011;51832;48.152;11.530;2023-03-17T18:33:30;9.43;;;5.80;;
56599;SDS011;51832;48.152;11.530;2023-03-17T18:38:31;9.95;;;5.70;;
56599;SDS011;51832;48.152;11.530;2023-03-17T18:43:32;12.48;;;6.70;;
56599;SDS011;51832;48.152;11.530;2023-03-17T18:48:33;9.70;;;6.28;;
56599;SDS011;51832;48.152;11.530;2023-03-17T18:53:35;11.57;;;6.00;;
56599;SDS011;51832;48.152;11.530;2023-03-17T18:58:35;12.27;;;7.13;;
56599;SDS011;51832;48.152;11.530;2023-03-17T19:03:36;11.43;;;8.15;;
56599;SDS011;51832;48.152;11.530;2023-03-17T19:08:36;13.50;;;8.25;;
56599;SDS011;51832;48.152;11.530;2023-03-17T19:13:37;16.45;;;9.43;;
56599;SDS011;51832;48.152;11.530;2023-03-17T19:18:38;13.57;;;7.78;;
56599;SDS011;51832;48.152;11.530;2023-03-17T19:23:39;12.98;;;6.95;;
56599;SDS011;51832;48.152;11.530;2023-03-17T19:28:40;10.55;;;6.80;;
56599;SDS011;51832;48.152;11.530;2023-03-17T19:33:40;9.35;;;6.13;;
56599;SDS011;51832;48.152;11.530;2023-03-17T19:38:41;10.63;;;7.43;;
56599;SDS011;51832;48.152;11.530;2023-03-17T19:43:41;8.50;;;5.55;;
56599;SDS011;51832;48.152;11.530;2023-03-17T19:48:42;8.70;;;6.37;;
56599;SDS011;51832;48.152;11.530;2023-03-17T19:53:42;10.80;;;7.22;;
56599;SDS011;51832;48.152;11.530;2023-03-17T19:58:42;11.17;;;6.47;;
56599;SDS011;51832;48.152;11.530;2023-03-17T20:03:43;12.88;;;7.55;;
56599;SDS011;51832;48.152;11.530;2023-03-17T20:08:43;10.40;;;7.50;;
56599;SDS011;51832;48.152;11.530;2023-03-17T20:13:44;16.20;;;8.88;;
56599;SDS011;51832;48.152;11.530;2023-03-17T20:18:44;12.50;;;8.02;;
56599;SDS011;51832;48.152;11.530;2023-03-17T20:23:45;12.40;;;8.10;;
56599;SDS011;51832;48.152;11.530;2023-03-17T20:28:45;9.27;;;6.38;;
56599;SDS011;51832;48.152;11.530;2023-03-17T20:33:46;13.65;;;8.02;;
56599;SDS011;51832;48.152;11.530;2023-03-17T20:38:47;12.45;;;8.35;;
56599;SDS011;51832;48.152;11.530;2023-03-17T20:43:48;15.52;;;7.93;;
56599;SDS011;51832;48.152;11.530;2023-03-17T20:48:48;14.20;;;9.07;;
56599;SDS011;51832;48.152;11.530;2023-03-17T20:53:57;12.88;;;9.00;;
56599;SDS011;51832;48.152;11.530;2023-03-17T20:58:57;12.53;;;7.77;;
56599;SDS011;51832;48.152;11.530;2023-03-17T21:04:00;12.13;;;8.03;;
56599;SDS011;51832;48.152;11.530;2023-03-17T21:09:00;13.07;;;7.95;;
56599;SDS011;51832;48.152;11.530;2023-03-17T21:14:04;14.50;;;9.68;;
56599;SDS011;51832;48.152;11.530;2023-03-17T21:24:22;15.60;;;9.00;;
56599;SDS011;51832;48.152;11.530;2023-03-17T21:29:27;12.18;;;9.00;;
56599;SDS011;51832;48.152;11.530;2023-03-17T21:34:29;14.05;;;8.70;;
56599;SDS011;51832;48.152;11.530;2023-03-17T21:39:30;13.07;;;7.82;;
56599;SDS011;51832;48.152;11.530;2023-03-17T21:44:31;13.07;;;7.97;;
56599;SDS011;51832;48.152;11.530;2023-03-17T21:49:32;10.13;;;7.38;;
56599;SDS011;51832;48.152;11.530;2023-03-17T21:54:32;13.17;;;7.83;;
56599;SDS011;51832;48.152;11.530;2023-03-17T21:59:34;14.85;;;7.47;;
56599;SDS011;51832;48.152;11.530;2023-03-17T22:04:36;10.50;;;6.43;;
56599;SDS011;51832;48.152;11.530;2023-03-17T22:09:36;8.95;;;6.85;;
56599;SDS011;51832;48.152;11.530;2023-03-17T22:14:37;8.75;;;6.60;;
56599;SDS011;51832;48.152;11.530;2023-03-17T22:19:37;12.68;;;7.35;;
56599;SDS011;51832;48.152;11.530;2023-03-17T22:24:40;11.27;;;7.47;;
56599;SDS011;51832;48.152;11.530;2023-03-17T22:29:41;9.88;;;6.78;;
56599;SDS011;51832;48.152;11.530;2023-03-17T22:34:42;10.07;;;6.57;;
56599;SDS011;51832;48.152;11.530;2023-03-17T22:39:44;10.55;;;6.80;;
56599;SDS011;51832;48.152;11.530;2023-03-17T22:44:44;7.95;;;5.78;;
56599;SDS011;51832;48.152;11.530;2023-03-17T22:49:45;11.82;;;6.40;;
56599;SDS011;51832;48.152;11.530;2023-03-17T22:54:45;10.45;;;6.38;;
56599;SDS011;51832;48.152;11.530;2023-03-17T22:59:46;8.25;;;6.05;;
56599;SDS011;51832;48.152;11.530;2023-03-17T23:04:46;12.23;;;6.40;;
56599;SDS011;51832;48.152;11.530;2023-03-17T23:09:48;11.65;;;6.90;;
56599;SDS011;51832;48.152;11.530;2023-03-17T23:14:48;10.55;;;6.70;;
56599;SDS011;51832;48.152;11.530;2023-03-17T23:19:49;10.50;;;6.82;;
56599;SDS011;51832;48.152;11.530;2023-03-17T23:24:49;11.15;;;6.78;;
56599;SDS011;51832;48.152;11.530;2023-03-17T23:29:50;10.52;;;6.15;;
56599;SDS011;51832;48.152;11.530;2023-03-17T23:34:52;10.68;;;6.25;;
56599;SDS011;51832;48.152;11.530;2023-03-17T23:39:52;8.27;;;4.95;;
56599;SDS011;51832;48.152;11.530;2023-03-17T23:44:53;7.35;;;4.78;;
56599;SDS011;51832;48.152;11.530;2023-03-17T23:49:54;7.30;;;5.30;;
56599;SDS011;51832;48.152;11.530;2023-03-17T23:54:54;9.93;;;5.13;;
56599;SDS011;51832;48.152;11.530;2023-03-17T23:59:55;6.63;;;4.78;;
